Alvorada de Minas, Brazil
Current Conditions -  °F | °C
As of 2:00 PM on Saturday 25 Oct 2014 (Local Time) from SBLS Reporting Station
Broken Clouds Broken Clouds  
Wind Chill: 86°   Ceiling: 8000
Heat Index: 86°   Visibility: 6mi
Dew Point: 52°   Wind: 6mph
Humidity: 31%   Direction: 40°NE
Pressure: 30"   Gusts: NA
Location:  18.74°S, 43.37°W
Report Text: SBLS 251600Z 04005KT 9999 SCT036 BKN080 30/11 Q1016
Loading
Personal Weather Stations






























Interactive Weather Map
Tropical Storm Tracking
New forecast layout! Learn more

10-Day Weather Forecast

Advertisements
Track Severe Weather on mobile